createdAt,value
2022-10-13T00:01:04.260Z,9.860535
2022-10-13T00:04:29.428Z,10.092163
2022-10-13T00:07:54.610Z,10.293579
2022-10-13T00:11:19.776Z,10.444641
2022-10-13T00:14:44.924Z,10.595703
2022-10-13T00:18:10.109Z,10.696411
2022-10-13T00:21:35.265Z,10.736694
2022-10-13T00:25:00.447Z,10.787048
2022-10-13T00:28:25.674Z,10.776978
2022-10-13T00:31:50.765Z,10.787048
2022-10-13T00:35:15.930Z,10.847473
2022-10-13T00:38:41.087Z,10.857544
2022-10-13T00:42:06.277Z,10.80719
2022-10-13T00:45:31.481Z,10.787048
2022-10-13T00:48:56.625Z,10.736694
2022-10-13T00:52:21.810Z,10.666199
2022-10-13T00:55:46.983Z,10.585632
2022-10-13T00:59:12.155Z,10.585632
2022-10-13T01:02:37.342Z,10.505066
2022-10-13T01:06:02.504Z,10.454712
2022-10-13T01:09:27.653Z,10.333862
2022-10-13T01:12:52.795Z,10.293579
2022-10-13T01:16:17.948Z,10.172729
2022-10-13T01:19:43.124Z,10.072021
2022-10-13T01:23:08.251Z,10.041809
2022-10-13T01:26:33.439Z,9.93103
2022-10-13T01:29:58.609Z,9.910889
2022-10-13T01:33:23.776Z,9.860535
2022-10-13T01:36:48.967Z,9.910889
2022-10-13T01:40:14.117Z,9.941101
2022-10-13T01:43:39.311Z,10.011597
2022-10-13T01:47:04.448Z,10.05188
2022-10-13T01:50:29.620Z,10.1828
2022-10-13T01:53:54.845Z,10.30365
2022-10-13T01:57:19.995Z,10.384216
2022-10-13T02:00:45.191Z,10.525208
2022-10-13T02:04:10.294Z,10.625916
2022-10-13T02:07:35.450Z,10.736694
2022-10-13T02:11:00.650Z,10.756836
2022-10-13T02:14:25.812Z,10.787048
2022-10-13T02:17:50.982Z,10.706482
2022-10-13T02:21:16.168Z,10.666199
2022-10-13T02:24:41.335Z,10.55542
2022-10-13T02:28:06.527Z,10.484924
2022-10-13T02:31:31.662Z,10.444641
2022-10-13T02:34:56.840Z,10.444641
2022-10-13T02:38:21.987Z,10.414429
2022-10-13T02:41:47.124Z,10.414429
2022-10-13T02:45:12.294Z,10.454712
2022-10-13T02:48:37.421Z,10.525208
2022-10-13T02:52:02.596Z,10.525208
2022-10-13T02:55:27.757Z,10.605774
2022-10-13T02:58:52.946Z,10.656128
2022-10-13T03:02:18.521Z,10.696411
2022-10-13T03:05:43.255Z,10.776978
2022-10-13T03:09:08.429Z,10.80719
2022-10-13T03:12:33.622Z,10.817261
2022-10-13T03:15:58.803Z,10.877686
2022-10-13T03:19:23.997Z,10.907898
2022-10-13T03:22:49.995Z,10.907898
2022-10-13T03:26:14.313Z,10.93811
2022-10-13T03:29:39.484Z,10.93811
2022-10-13T03:33:04.655Z,10.968323
2022-10-13T03:36:29.874Z,11.028748
2022-10-13T03:39:55.027Z,11.038818
2022-10-13T03:43:20.216Z,11.089172
2022-10-13T03:46:45.370Z,11.149597
2022-10-13T03:50:10.535Z,11.149597
2022-10-13T03:53:35.730Z,11.169739
2022-10-13T03:57:00.857Z,11.17981
2022-10-13T04:00:26.017Z,11.210022
2022-10-13T04:03:51.182Z,11.240234
2022-10-13T04:07:16.338Z,11.240234
2022-10-13T04:10:41.515Z,11.240234
2022-10-13T04:14:06.648Z,11.270447
2022-10-13T04:17:31.806Z,11.290588
2022-10-13T04:20:56.959Z,11.351013
2022-10-13T04:24:22.121Z,11.391296
2022-10-13T04:27:47.318Z,11.391296
2022-10-13T04:31:12.475Z,11.421509
2022-10-13T04:34:37.649Z,11.421509
2022-10-13T04:38:02.836Z,11.461792
2022-10-13T04:41:28.008Z,11.461792
2022-10-13T04:44:53.210Z,11.492004
2022-10-13T04:48:18.368Z,11.43158
2022-10-13T04:51:43.525Z,11.421509
2022-10-13T04:55:08.688Z,11.320801
2022-10-13T04:58:33.891Z,11.270447
2022-10-13T05:01:59.159Z,11.210022
2022-10-13T05:05:24.350Z,11.17981
2022-10-13T05:08:49.541Z,11.220093
2022-10-13T05:12:14.751Z,11.240234
2022-10-13T05:15:39.904Z,11.280518
2022-10-13T05:19:05.072Z,11.220093
2022-10-13T05:22:30.238Z,11.270447
2022-10-13T05:25:55.417Z,11.240234
2022-10-13T05:29:20.583Z,11.280518
2022-10-13T05:32:47.496Z,11.330872
2022-10-13T05:36:10.918Z,11.351013
2022-10-13T05:39:36.075Z,11.351013
2022-10-13T05:43:01.266Z,11.401367
2022-10-13T05:46:26.445Z,11.421509
2022-10-13T05:49:51.672Z,11.44165
2022-10-13T05:53:16.858Z,11.512146
2022-10-13T05:56:42.026Z,11.512146
2022-10-13T06:00:07.180Z,11.492004
2022-10-13T06:03:32.366Z,11.492004
2022-10-13T06:06:57.556Z,11.512146
2022-10-13T06:10:22.781Z,11.44165
2022-10-13T06:13:47.919Z,11.492004
2022-10-13T06:17:13.150Z,11.522217
2022-10-13T06:20:38.337Z,11.602783
2022-10-13T06:24:03.579Z,11.602783
2022-10-13T06:27:28.825Z,11.602783
2022-10-13T06:30:53.984Z,11.622925
2022-10-13T06:34:19.190Z,11.653137
2022-10-13T06:37:44.433Z,11.703491
2022-10-13T06:41:09.687Z,11.753845
2022-10-13T06:44:34.965Z,11.784058
2022-10-13T06:48:00.173Z,11.804199
2022-10-13T06:51:25.373Z,11.804199
2022-10-13T06:54:50.590Z,11.794128
2022-10-13T06:58:15.801Z,11.824341
2022-10-13T07:01:41.792Z,11.824341
2022-10-13T07:05:06.246Z,11.834412
2022-10-13T07:08:31.455Z,11.854553
2022-10-13T07:11:56.657Z,11.884766
2022-10-13T07:15:21.851Z,11.914978
2022-10-13T07:18:47.094Z,11.94519
2022-10-13T07:22:12.281Z,11.985474
2022-10-13T07:25:37.505Z,12.005615
2022-10-13T07:29:02.703Z,12.045898
2022-10-13T07:32:27.891Z,12.035828
2022-10-13T07:35:53.114Z,12.015686
2022-10-13T07:39:18.298Z,11.985474
2022-10-13T07:42:43.512Z,12.045898
2022-10-13T07:46:08.750Z,12.086182
2022-10-13T07:49:33.959Z,12.06604
2022-10-13T07:52:59.274Z,12.116394
2022-10-13T07:56:24.412Z,12.06604
2022-10-13T07:59:49.614Z,12.096252
2022-10-13T08:03:14.810Z,12.045898
2022-10-13T08:10:05.302Z,12.015686
2022-10-13T08:13:30.481Z,12.045898
2022-10-13T08:16:55.717Z,12.015686
2022-10-13T08:20:20.919Z,12.086182
2022-10-13T08:23:46.122Z,12.035828
2022-10-13T08:27:11.369Z,11.975403
2022-10-13T08:30:36.639Z,12.06604
2022-10-13T08:34:01.767Z,12.126465
2022-10-13T08:37:26.985Z,12.136536
2022-10-13T08:40:52.178Z,12.136536
2022-10-13T08:47:42.592Z,12.126465
2022-10-13T08:51:07.804Z,12.086182
2022-10-13T08:54:32.990Z,12.06604
2022-10-13T08:57:58.200Z,12.045898
2022-10-13T09:01:23.438Z,11.985474
2022-10-13T09:04:48.626Z,12.035828
2022-10-13T09:08:13.823Z,12.06604
2022-10-13T09:11:39.045Z,12.086182
2022-10-13T09:15:04.273Z,12.116394
2022-10-13T09:18:29.475Z,12.045898
2022-10-13T09:21:54.676Z,12.015686
2022-10-13T09:25:19.903Z,12.045898
2022-10-13T09:28:45.220Z,12.045898
2022-10-13T09:32:10.347Z,11.985474
2022-10-13T09:35:35.618Z,11.94519
2022-10-13T09:39:00.739Z,11.93512
2022-10-13T09:42:25.961Z,11.985474
2022-10-13T09:45:51.153Z,11.985474
2022-10-13T09:49:16.330Z,11.914978
2022-10-13T09:52:41.629Z,11.955261
2022-10-13T09:56:06.745Z,12.005615
2022-10-13T09:59:31.959Z,12.035828
2022-10-13T10:02:57.184Z,12.116394
2022-10-13T10:06:22.865Z,12.166748
2022-10-13T10:09:47.623Z,12.237244
2022-10-13T10:13:12.823Z,12.337952
2022-10-13T10:16:38.054Z,12.287598
2022-10-13T10:20:03.275Z,12.31781
2022-10-13T10:23:28.549Z,12.267456
2022-10-13T10:26:53.821Z,12.237244
2022-10-13T10:30:18.976Z,12.267456
2022-10-13T10:33:44.147Z,12.337952
2022-10-13T10:37:09.345Z,12.277527
2022-10-13T10:40:34.555Z,12.368164
2022-10-13T10:43:59.799Z,12.458801
2022-10-13T10:47:25.279Z,12.619934
2022-10-13T10:50:50.212Z,12.720642
2022-10-13T10:54:15.399Z,12.791138
2022-10-13T10:57:40.574Z,12.901917
2022-10-13T11:01:05.838Z,12.932129
2022-10-13T11:04:30.975Z,13.012695
2022-10-13T11:07:56.202Z,13.083191
2022-10-13T11:11:25.014Z,13.083191
2022-10-13T11:14:46.540Z,13.113403
2022-10-13T11:18:11.744Z,13.234253
2022-10-13T11:21:36.861Z,13.455811
2022-10-13T11:25:02.089Z,13.566589
2022-10-13T11:28:27.379Z,13.667297
2022-10-13T11:31:52.478Z,13.707581
2022-10-13T11:35:17.685Z,13.808289
2022-10-13T11:38:42.851Z,13.888855
2022-10-13T11:42:08.045Z,13.94928
2022-10-13T11:45:33.410Z,13.959351
2022-10-13T11:48:58.594Z,14.019775
2022-10-13T11:52:23.978Z,14.039917
2022-10-13T11:55:49.194Z,13.919067
2022-10-13T11:59:14.369Z,13.707581
2022-10-13T12:02:39.566Z,13.657227
2022-10-13T12:06:04.783Z,13.627014
2022-10-13T12:09:30.133Z,13.627014
2022-10-13T12:12:55.185Z,13.616943
2022-10-13T12:16:20.396Z,13.627014
2022-10-13T12:19:45.719Z,13.667297
2022-10-13T12:23:10.914Z,13.667297
2022-10-13T12:26:36.186Z,13.657227
2022-10-13T12:30:01.294Z,13.536377
2022-10-13T12:33:26.485Z,13.385315
2022-10-13T12:40:16.928Z,13.385315
2022-10-13T12:43:42.161Z,13.415527
2022-10-13T12:47:07.402Z,13.405457
2022-10-13T12:50:32.626Z,13.506165
2022-10-13T12:53:57.821Z,13.486023
2022-10-13T12:57:23.003Z,13.596802
2022-10-13T13:00:48.303Z,13.727722
2022-10-13T13:04:13.405Z,13.838501
2022-10-13T13:07:38.607Z,13.919067
2022-10-13T13:11:04.803Z,14.029846
2022-10-13T13:14:30.029Z,14.070129
2022-10-13T13:17:59.154Z,13.999634
2022-10-13T13:21:20.417Z,13.94928
2022-10-13T13:24:45.619Z,13.888855
2022-10-13T13:28:10.826Z,13.919067
2022-10-13T13:31:36.084Z,13.94928
2022-10-13T13:35:01.341Z,13.888855
2022-10-13T13:38:26.500Z,13.848572
2022-10-13T13:41:51.702Z,13.878784
2022-10-13T13:45:16.918Z,13.969421
2022-10-13T13:48:42.154Z,14.120483
2022-10-13T13:52:07.360Z,14.20105
2022-10-13T13:55:32.544Z,14.271545
2022-10-13T13:58:57.738Z,14.251404
2022-10-13T14:02:22.933Z,14.20105
2022-10-13T14:05:48.130Z,14.140625
2022-10-13T14:09:13.380Z,14.039917
2022-10-13T14:12:38.543Z,14.029846
2022-10-13T14:16:03.771Z,13.999634
2022-10-13T14:19:28.989Z,13.959351
2022-10-13T14:22:54.213Z,13.888855
2022-10-13T14:26:19.489Z,13.888855
2022-10-13T14:29:44.632Z,13.778076
2022-10-13T15:05:06.239Z,13.435669
2022-10-13T15:08:31.466Z,13.415527
2022-10-13T15:11:56.747Z,13.385315
2022-10-13T15:15:22.048Z,13.415527
2022-10-13T15:18:47.274Z,13.44574
2022-10-13T15:22:13.638Z,13.385315
2022-10-13T15:25:38.843Z,13.385315
2022-10-13T15:29:04.010Z,13.405457
2022-10-13T15:32:29.206Z,13.334961
2022-10-13T15:35:54.371Z,13.334961
2022-10-13T15:39:19.574Z,13.355103
2022-10-13T15:42:44.798Z,13.304749
2022-10-13T15:46:10.004Z,13.294678
2022-10-13T15:49:35.183Z,13.254395
2022-10-13T15:53:00.365Z,13.123474
2022-10-13T15:56:25.547Z,13.123474
2022-10-13T15:59:50.740Z,13.143616
2022-10-13T16:03:15.979Z,13.153687
2022-10-13T16:06:41.188Z,13.19397
2022-10-13T16:10:06.409Z,13.204041
2022-10-13T16:13:31.630Z,13.19397
2022-10-13T16:16:59.731Z,13.173828
2022-10-13T16:20:24.901Z,13.173828
2022-10-13T16:23:50.059Z,13.173828
2022-10-13T16:27:15.429Z,13.173828
2022-10-13T16:30:40.622Z,13.153687
2022-10-13T16:34:05.768Z,13.103333
2022-10-13T16:37:30.968Z,13.103333
2022-10-13T16:40:56.207Z,13.042908
2022-10-13T16:44:22.804Z,13.002625
2022-10-13T16:47:48.209Z,12.891846
2022-10-13T16:51:13.329Z,12.861633
2022-10-13T16:54:38.519Z,12.891846
2022-10-13T16:58:03.661Z,12.851562
2022-10-13T17:01:28.857Z,12.891846
2022-10-13T17:04:54.080Z,12.871704
2022-10-13T17:08:19.199Z,12.851562
2022-10-13T17:11:44.352Z,12.720642
2022-10-13T17:15:09.548Z,12.650146
2022-10-13T17:18:34.704Z,12.650146
2022-10-13T17:21:59.912Z,12.680359
2022-10-13T17:25:25.109Z,12.539368
2022-10-13T17:28:50.454Z,12.468872
2022-10-13T17:32:15.418Z,12.458801
2022-10-13T17:35:40.575Z,12.408447
2022-10-13T17:39:05.804Z,12.408447
2022-10-13T17:42:31.090Z,12.418518
2022-10-13T17:46:03.632Z,12.378235
2022-10-13T17:49:21.417Z,12.368164
2022-10-13T17:52:46.629Z,12.337952
2022-10-13T17:56:11.843Z,12.31781
2022-10-13T17:59:36.965Z,12.31781
2022-10-13T18:03:02.134Z,12.31781
2022-10-13T18:06:27.305Z,12.277527
2022-10-13T18:09:52.478Z,12.18689
2022-10-13T18:13:17.679Z,12.166748
2022-10-13T18:16:42.806Z,12.227173
2022-10-13T18:20:07.988Z,12.277527
2022-10-13T18:23:33.224Z,12.307739
2022-10-13T18:26:58.369Z,12.267456
2022-10-13T18:30:23.549Z,12.277527
2022-10-13T18:33:48.718Z,12.307739
2022-10-13T18:37:13.931Z,12.348022
2022-10-13T18:40:39.100Z,12.378235
2022-10-13T18:44:04.284Z,12.44873
2022-10-13T18:47:29.481Z,12.458801
2022-10-13T18:50:54.631Z,12.529297
2022-10-13T18:54:19.779Z,12.599792
2022-10-13T18:57:44.999Z,12.619934
2022-10-13T19:01:10.219Z,12.599792
2022-10-13T19:04:35.338Z,12.619934
2022-10-13T19:08:00.470Z,12.599792
2022-10-13T19:11:25.637Z,12.559509
2022-10-13T19:14:50.786Z,12.56958
2022-10-13T19:18:15.943Z,12.559509
2022-10-13T19:21:41.115Z,12.529297
2022-10-13T19:25:06.285Z,12.539368
2022-10-13T19:28:31.535Z,12.529297
2022-10-13T19:31:56.612Z,12.499084
2022-10-13T19:35:21.827Z,12.529297
2022-10-13T19:38:47.060Z,12.519226
2022-10-13T19:42:12.233Z,12.499084
2022-10-13T19:45:37.446Z,12.44873
2022-10-13T19:49:02.736Z,12.408447
2022-10-13T19:52:27.936Z,12.378235
2022-10-13T19:55:53.110Z,12.388306
2022-10-13T19:59:18.250Z,12.388306
2022-10-13T20:02:43.398Z,12.408447
2022-10-13T20:06:08.579Z,12.408447
2022-10-13T20:09:33.730Z,12.378235
2022-10-13T20:12:58.908Z,12.388306
2022-10-13T20:16:24.026Z,12.388306
2022-10-13T20:19:49.180Z,12.388306
2022-10-13T20:23:14.882Z,12.368164
2022-10-13T20:26:39.839Z,12.368164
2022-10-13T20:30:05.045Z,12.31781
2022-10-13T20:33:30.176Z,12.337952
2022-10-13T20:36:55.318Z,12.307739
2022-10-13T20:40:20.476Z,12.337952
2022-10-13T20:43:45.651Z,12.337952
2022-10-13T20:47:10.846Z,12.31781
2022-10-13T20:50:36.033Z,12.337952
2022-10-13T20:54:01.158Z,12.388306
2022-10-13T20:57:26.327Z,12.418518
2022-10-13T21:00:51.571Z,12.458801
2022-10-13T21:04:16.736Z,12.499084
2022-10-13T21:07:41.949Z,12.468872
2022-10-13T21:11:07.099Z,12.388306
2022-10-13T21:14:32.241Z,12.368164
2022-10-13T21:17:57.405Z,12.348022
2022-10-13T21:21:22.664Z,12.388306
2022-10-13T21:24:47.806Z,12.368164
2022-10-13T21:28:13.005Z,12.418518
2022-10-13T21:31:38.117Z,12.468872
2022-10-13T21:35:03.296Z,12.468872
2022-10-13T21:38:28.511Z,12.499084
2022-10-13T21:41:53.635Z,12.489014
2022-10-13T21:45:18.838Z,12.468872
2022-10-13T21:48:44.004Z,12.468872
2022-10-13T21:52:09.166Z,12.418518
2022-10-13T21:55:34.412Z,12.418518
2022-10-13T21:58:59.545Z,12.489014
2022-10-13T22:02:24.702Z,12.519226
2022-10-13T22:05:49.855Z,12.539368
2022-10-13T22:09:15.057Z,12.499084
2022-10-13T22:12:40.273Z,12.44873
2022-10-13T22:16:05.416Z,12.418518
2022-10-13T22:19:30.586Z,12.418518
2022-10-13T22:22:55.786Z,12.458801
2022-10-13T22:26:20.916Z,12.418518
2022-10-13T22:29:46.148Z,12.458801
2022-10-13T22:33:11.276Z,12.418518
2022-10-13T22:36:38.929Z,12.388306
2022-10-13T22:40:01.682Z,12.408447
2022-10-13T22:43:26.793Z,12.388306
2022-10-13T22:46:51.977Z,12.348022
2022-10-13T22:50:17.115Z,12.368164
2022-10-13T22:53:42.338Z,12.378235
2022-10-13T22:57:07.482Z,12.368164
2022-10-13T23:00:32.636Z,12.348022
2022-10-13T23:03:57.917Z,12.378235
2022-10-13T23:07:23.422Z,12.378235
2022-10-13T23:10:48.250Z,12.388306
2022-10-13T23:14:13.407Z,12.388306
2022-10-13T23:17:38.602Z,12.458801
2022-10-13T23:21:03.823Z,12.44873
2022-10-13T23:24:28.951Z,12.499084
2022-10-13T23:27:54.145Z,12.489014
2022-10-13T23:31:19.289Z,12.519226
2022-10-13T23:34:44.424Z,12.458801
2022-10-13T23:38:09.653Z,12.408447
2022-10-13T23:41:34.794Z,12.458801
2022-10-13T23:44:59.921Z,12.418518
2022-10-13T23:48:25.084Z,12.388306
2022-10-13T23:51:50.297Z,12.408447
2022-10-13T23:55:15.515Z,12.378235
2022-10-13T23:58:40.713Z,12.458801
